sensor_id;sensor_type;location;lat;lon;timestamp;P1;durP1;ratioP1;P2;durP2;ratioP2
25982;SDS011;13773;48.868;10.730;2024-01-15T00:02:01;33.47;;;13.73;;
25982;SDS011;13773;48.868;10.730;2024-01-15T00:04:28;29.97;;;13.03;;
25982;SDS011;13773;48.868;10.730;2024-01-15T00:06:53;39.37;;;16.70;;
25982;SDS011;13773;48.868;10.730;2024-01-15T00:09:19;34.53;;;13.67;;
25982;SDS011;13773;48.868;10.730;2024-01-15T00:11:45;35.23;;;12.97;;
25982;SDS011;13773;48.868;10.730;2024-01-15T00:14:11;31.30;;;13.17;;
25982;SDS011;13773;48.868;10.730;2024-01-15T00:16:40;32.37;;;11.93;;
25982;SDS011;13773;48.868;10.730;2024-01-15T00:19:05;35.00;;;11.37;;
25982;SDS011;13773;48.868;10.730;2024-01-15T00:21:31;31.93;;;12.37;;
25982;SDS011;13773;48.868;10.730;2024-01-15T00:23:57;40.90;;;16.17;;
25982;SDS011;13773;48.868;10.730;2024-01-15T00:26:22;37.40;;;15.30;;
25982;SDS011;13773;48.868;10.730;2024-01-15T00:28:48;35.70;;;13.23;;
25982;SDS011;13773;48.868;10.730;2024-01-15T00:31:15;27.20;;;12.47;;
25982;SDS011;13773;48.868;10.730;2024-01-15T00:33:42;28.80;;;10.63;;
25982;SDS011;13773;48.868;10.730;2024-01-15T00:36:08;31.57;;;12.70;;
25982;SDS011;13773;48.868;10.730;2024-01-15T00:38:33;30.20;;;12.03;;
25982;SDS011;13773;48.868;10.730;2024-01-15T00:40:59;27.30;;;13.07;;
25982;SDS011;13773;48.868;10.730;2024-01-15T00:43:25;33.43;;;13.30;;
25982;SDS011;13773;48.868;10.730;2024-01-15T00:45:50;34.13;;;12.77;;
25982;SDS011;13773;48.868;10.730;2024-01-15T00:48:16;31.67;;;13.40;;
25982;SDS011;13773;48.868;10.730;2024-01-15T00:50:41;31.00;;;14.30;;
25982;SDS011;13773;48.868;10.730;2024-01-15T00:53:07;32.37;;;12.10;;
25982;SDS011;13773;48.868;10.730;2024-01-15T00:55:33;33.37;;;13.20;;
25982;SDS011;13773;48.868;10.730;2024-01-15T00:57:58;29.90;;;14.53;;
25982;SDS011;13773;48.868;10.730;2024-01-15T01:00:24;27.83;;;12.33;;
25982;SDS011;13773;48.868;10.730;2024-01-15T01:02:50;31.07;;;12.83;;
25982;SDS011;13773;48.868;10.730;2024-01-15T01:05:15;26.40;;;12.60;;
25982;SDS011;13773;48.868;10.730;2024-01-15T01:07:41;31.80;;;12.63;;
25982;SDS011;13773;48.868;10.730;2024-01-15T01:10:07;30.27;;;11.73;;
25982;SDS011;13773;48.868;10.730;2024-01-15T01:12:32;23.37;;;11.17;;
25982;SDS011;13773;48.868;10.730;2024-01-15T01:14:58;28.83;;;12.37;;
25982;SDS011;13773;48.868;10.730;2024-01-15T01:17:24;31.23;;;13.93;;
25982;SDS011;13773;48.868;10.730;2024-01-15T01:19:50;24.97;;;11.13;;
25982;SDS011;13773;48.868;10.730;2024-01-15T01:22:16;29.23;;;11.43;;
25982;SDS011;13773;48.868;10.730;2024-01-15T01:24:41;32.70;;;12.67;;
25982;SDS011;13773;48.868;10.730;2024-01-15T01:27:07;16.80;;;8.93;;
25982;SDS011;13773;48.868;10.730;2024-01-15T01:29:32;27.23;;;9.67;;
25982;SDS011;13773;48.868;10.730;2024-01-15T01:31:58;27.73;;;10.77;;
25982;SDS011;13773;48.868;10.730;2024-01-15T01:34:24;27.17;;;10.77;;
25982;SDS011;13773;48.868;10.730;2024-01-15T01:36:49;27.10;;;10.97;;
25982;SDS011;13773;48.868;10.730;2024-01-15T01:39:15;32.53;;;13.63;;
25982;SDS011;13773;48.868;10.730;2024-01-15T01:41:41;23.53;;;10.77;;
25982;SDS011;13773;48.868;10.730;2024-01-15T01:44:06;24.90;;;10.93;;
25982;SDS011;13773;48.868;10.730;2024-01-15T01:46:32;26.47;;;11.53;;
25982;SDS011;13773;48.868;10.730;2024-01-15T01:49:04;25.93;;;10.77;;
25982;SDS011;13773;48.868;10.730;2024-01-15T01:51:31;24.23;;;10.80;;
25982;SDS011;13773;48.868;10.730;2024-01-15T01:53:58;22.70;;;9.90;;
25982;SDS011;13773;48.868;10.730;2024-01-15T01:56:24;26.03;;;11.03;;
25982;SDS011;13773;48.868;10.730;2024-01-15T01:58:50;23.00;;;10.23;;
25982;SDS011;13773;48.868;10.730;2024-01-15T02:01:16;25.10;;;10.87;;
25982;SDS011;13773;48.868;10.730;2024-01-15T02:03:42;23.07;;;9.13;;
25982;SDS011;13773;48.868;10.730;2024-01-15T02:06:08;17.00;;;8.83;;
25982;SDS011;13773;48.868;10.730;2024-01-15T02:08:34;19.17;;;9.00;;
25982;SDS011;13773;48.868;10.730;2024-01-15T02:11:00;21.37;;;9.87;;
25982;SDS011;13773;48.868;10.730;2024-01-15T02:13:26;19.73;;;8.93;;
25982;SDS011;13773;48.868;10.730;2024-01-15T02:15:52;20.33;;;9.53;;
25982;SDS011;13773;48.868;10.730;2024-01-15T02:18:17;20.27;;;9.40;;
25982;SDS011;13773;48.868;10.730;2024-01-15T02:20:43;19.33;;;9.07;;
25982;SDS011;13773;48.868;10.730;2024-01-15T02:23:12;21.07;;;9.47;;
25982;SDS011;13773;48.868;10.730;2024-01-15T02:25:39;18.93;;;8.27;;
25982;SDS011;13773;48.868;10.730;2024-01-15T02:28:08;21.30;;;9.03;;
25982;SDS011;13773;48.868;10.730;2024-01-15T02:30:39;17.63;;;9.00;;
25982;SDS011;13773;48.868;10.730;2024-01-15T02:33:06;20.47;;;8.93;;
25982;SDS011;13773;48.868;10.730;2024-01-15T02:35:32;20.73;;;9.70;;
25982;SDS011;13773;48.868;10.730;2024-01-15T02:37:58;21.30;;;9.17;;
25982;SDS011;13773;48.868;10.730;2024-01-15T02:40:24;21.87;;;9.60;;
25982;SDS011;13773;48.868;10.730;2024-01-15T02:42:50;19.33;;;8.87;;
25982;SDS011;13773;48.868;10.730;2024-01-15T02:45:16;20.90;;;9.47;;
25982;SDS011;13773;48.868;10.730;2024-01-15T02:47:42;22.50;;;9.27;;
25982;SDS011;13773;48.868;10.730;2024-01-15T02:50:07;20.07;;;9.50;;
25982;SDS011;13773;48.868;10.730;2024-01-15T02:52:33;22.27;;;9.97;;
25982;SDS011;13773;48.868;10.730;2024-01-15T02:54:59;18.50;;;8.53;;
25982;SDS011;13773;48.868;10.730;2024-01-15T02:57:25;22.57;;;9.53;;
25982;SDS011;13773;48.868;10.730;2024-01-15T02:59:50;16.80;;;8.80;;
25982;SDS011;13773;48.868;10.730;2024-01-15T03:02:16;17.13;;;8.43;;
25982;SDS011;13773;48.868;10.730;2024-01-15T03:04:44;17.43;;;8.57;;
25982;SDS011;13773;48.868;10.730;2024-01-15T03:07:10;17.40;;;7.60;;
25982;SDS011;13773;48.868;10.730;2024-01-15T03:09:36;18.37;;;7.93;;
25982;SDS011;13773;48.868;10.730;2024-01-15T03:12:02;15.80;;;7.53;;
25982;SDS011;13773;48.868;10.730;2024-01-15T03:14:28;14.77;;;7.87;;
25982;SDS011;13773;48.868;10.730;2024-01-15T03:16:54;14.30;;;7.73;;
25982;SDS011;13773;48.868;10.730;2024-01-15T03:19:20;17.87;;;7.87;;
25982;SDS011;13773;48.868;10.730;2024-01-15T03:21:45;14.50;;;7.17;;
25982;SDS011;13773;48.868;10.730;2024-01-15T03:24:11;13.23;;;6.87;;
25982;SDS011;13773;48.868;10.730;2024-01-15T03:26:37;21.43;;;8.03;;
25982;SDS011;13773;48.868;10.730;2024-01-15T03:29:02;14.33;;;6.37;;
25982;SDS011;13773;48.868;10.730;2024-01-15T03:31:28;18.63;;;7.60;;
25982;SDS011;13773;48.868;10.730;2024-01-15T03:33:54;16.57;;;6.90;;
25982;SDS011;13773;48.868;10.730;2024-01-15T03:36:19;17.83;;;7.07;;
25982;SDS011;13773;48.868;10.730;2024-01-15T03:38:45;14.40;;;6.83;;
25982;SDS011;13773;48.868;10.730;2024-01-15T03:41:10;11.23;;;6.37;;
25982;SDS011;13773;48.868;10.730;2024-01-15T03:43:36;13.03;;;7.50;;
25982;SDS011;13773;48.868;10.730;2024-01-15T03:46:02;13.77;;;7.00;;
25982;SDS011;13773;48.868;10.730;2024-01-15T03:48:27;14.20;;;6.50;;
25982;SDS011;13773;48.868;10.730;2024-01-15T03:50:53;12.23;;;6.50;;
25982;SDS011;13773;48.868;10.730;2024-01-15T03:53:19;13.83;;;6.37;;
25982;SDS011;13773;48.868;10.730;2024-01-15T03:55:44;12.23;;;6.57;;
25982;SDS011;13773;48.868;10.730;2024-01-15T03:58:10;9.60;;;5.77;;
25982;SDS011;13773;48.868;10.730;2024-01-15T04:00:36;13.10;;;6.27;;
25982;SDS011;13773;48.868;10.730;2024-01-15T04:03:02;9.93;;;5.53;;
25982;SDS011;13773;48.868;10.730;2024-01-15T04:05:27;14.97;;;7.70;;
25982;SDS011;13773;48.868;10.730;2024-01-15T04:07:53;11.13;;;6.00;;
25982;SDS011;13773;48.868;10.730;2024-01-15T04:10:19;12.93;;;6.70;;
25982;SDS011;13773;48.868;10.730;2024-01-15T04:12:45;12.13;;;6.17;;
25982;SDS011;13773;48.868;10.730;2024-01-15T04:15:11;10.10;;;5.73;;
25982;SDS011;13773;48.868;10.730;2024-01-15T04:17:37;11.87;;;5.57;;
25982;SDS011;13773;48.868;10.730;2024-01-15T04:20:03;13.73;;;6.77;;
25982;SDS011;13773;48.868;10.730;2024-01-15T04:22:29;12.77;;;6.80;;
25982;SDS011;13773;48.868;10.730;2024-01-15T04:24:55;12.53;;;6.03;;
25982;SDS011;13773;48.868;10.730;2024-01-15T04:27:21;13.40;;;6.80;;
25982;SDS011;13773;48.868;10.730;2024-01-15T04:29:47;11.27;;;5.87;;
25982;SDS011;13773;48.868;10.730;2024-01-15T04:32:12;11.63;;;6.10;;
25982;SDS011;13773;48.868;10.730;2024-01-15T04:34:38;14.63;;;6.20;;
25982;SDS011;13773;48.868;10.730;2024-01-15T04:37:03;11.33;;;4.93;;
25982;SDS011;13773;48.868;10.730;2024-01-15T04:39:29;12.60;;;6.57;;
25982;SDS011;13773;48.868;10.730;2024-01-15T04:41:55;10.80;;;5.70;;
25982;SDS011;13773;48.868;10.730;2024-01-15T04:44:20;10.87;;;5.87;;
25982;SDS011;13773;48.868;10.730;2024-01-15T04:46:47;13.20;;;6.67;;
25982;SDS011;13773;48.868;10.730;2024-01-15T04:49:13;11.60;;;6.17;;
25982;SDS011;13773;48.868;10.730;2024-01-15T04:51:39;11.00;;;5.33;;
25982;SDS011;13773;48.868;10.730;2024-01-15T04:54:04;12.47;;;5.77;;
25982;SDS011;13773;48.868;10.730;2024-01-15T04:56:30;12.23;;;6.90;;
25982;SDS011;13773;48.868;10.730;2024-01-15T04:58:55;10.10;;;5.90;;
25982;SDS011;13773;48.868;10.730;2024-01-15T05:01:21;13.30;;;5.53;;
25982;SDS011;13773;48.868;10.730;2024-01-15T05:03:47;12.37;;;6.57;;
25982;SDS011;13773;48.868;10.730;2024-01-15T05:06:12;11.33;;;5.70;;
25982;SDS011;13773;48.868;10.730;2024-01-15T05:08:38;11.67;;;5.93;;
25982;SDS011;13773;48.868;10.730;2024-01-15T05:11:04;10.47;;;6.33;;
25982;SDS011;13773;48.868;10.730;2024-01-15T05:13:29;10.83;;;5.80;;
25982;SDS011;13773;48.868;10.730;2024-01-15T05:15:55;12.13;;;6.00;;
25982;SDS011;13773;48.868;10.730;2024-01-15T05:18:21;10.40;;;5.70;;
25982;SDS011;13773;48.868;10.730;2024-01-15T05:20:47;9.93;;;5.07;;
25982;SDS011;13773;48.868;10.730;2024-01-15T05:23:12;13.00;;;5.93;;
25982;SDS011;13773;48.868;10.730;2024-01-15T05:25:38;9.53;;;5.27;;
25982;SDS011;13773;48.868;10.730;2024-01-15T05:28:04;11.97;;;5.70;;
25982;SDS011;13773;48.868;10.730;2024-01-15T05:30:30;11.40;;;4.87;;
25982;SDS011;13773;48.868;10.730;2024-01-15T05:32:56;11.20;;;5.40;;
25982;SDS011;13773;48.868;10.730;2024-01-15T05:35:22;13.87;;;6.20;;
25982;SDS011;13773;48.868;10.730;2024-01-15T05:37:48;11.13;;;5.57;;
25982;SDS011;13773;48.868;10.730;2024-01-15T05:40:14;8.50;;;5.33;;
25982;SDS011;13773;48.868;10.730;2024-01-15T05:42:40;9.13;;;5.50;;
25982;SDS011;13773;48.868;10.730;2024-01-15T05:45:06;13.43;;;5.30;;
25982;SDS011;13773;48.868;10.730;2024-01-15T05:47:32;11.17;;;5.20;;
25982;SDS011;13773;48.868;10.730;2024-01-15T05:49:58;11.70;;;5.20;;
25982;SDS011;13773;48.868;10.730;2024-01-15T05:52:25;9.30;;;5.60;;
25982;SDS011;13773;48.868;10.730;2024-01-15T05:54:51;12.77;;;4.90;;
25982;SDS011;13773;48.868;10.730;2024-01-15T05:57:16;10.33;;;5.27;;
25982;SDS011;13773;48.868;10.730;2024-01-15T05:59:42;10.03;;;5.47;;
25982;SDS011;13773;48.868;10.730;2024-01-15T06:02:09;7.73;;;4.90;;
25982;SDS011;13773;48.868;10.730;2024-01-15T06:04:35;11.37;;;5.17;;
25982;SDS011;13773;48.868;10.730;2024-01-15T06:07:01;9.63;;;5.50;;
25982;SDS011;13773;48.868;10.730;2024-01-15T06:09:27;10.33;;;5.40;;
25982;SDS011;13773;48.868;10.730;2024-01-15T06:11:53;9.43;;;5.17;;
25982;SDS011;13773;48.868;10.730;2024-01-15T06:14:19;11.80;;;5.67;;
25982;SDS011;13773;48.868;10.730;2024-01-15T06:16:44;10.37;;;5.90;;
25982;SDS011;13773;48.868;10.730;2024-01-15T06:19:10;10.67;;;4.63;;
25982;SDS011;13773;48.868;10.730;2024-01-15T06:21:36;11.57;;;5.70;;
25982;SDS011;13773;48.868;10.730;2024-01-15T06:24:01;8.67;;;4.43;;
25982;SDS011;13773;48.868;10.730;2024-01-15T06:26:27;10.17;;;5.13;;
25982;SDS011;13773;48.868;10.730;2024-01-15T06:28:53;13.37;;;5.60;;
25982;SDS011;13773;48.868;10.730;2024-01-15T06:31:18;11.43;;;5.00;;
25982;SDS011;13773;48.868;10.730;2024-01-15T06:33:44;8.97;;;5.47;;
25982;SDS011;13773;48.868;10.730;2024-01-15T06:36:13;11.07;;;5.50;;
25982;SDS011;13773;48.868;10.730;2024-01-15T06:38:39;14.83;;;5.67;;
25982;SDS011;13773;48.868;10.730;2024-01-15T06:41:05;9.17;;;5.03;;
25982;SDS011;13773;48.868;10.730;2024-01-15T06:43:30;10.47;;;5.20;;
25982;SDS011;13773;48.868;10.730;2024-01-15T06:45:56;9.30;;;5.23;;
25982;SDS011;13773;48.868;10.730;2024-01-15T06:48:21;10.43;;;5.43;;
25982;SDS011;13773;48.868;10.730;2024-01-15T06:50:47;9.10;;;5.43;;
25982;SDS011;13773;48.868;10.730;2024-01-15T06:53:13;11.07;;;4.87;;
25982;SDS011;13773;48.868;10.730;2024-01-15T06:55:38;9.60;;;5.43;;
25982;SDS011;13773;48.868;10.730;2024-01-15T06:58:04;11.80;;;5.00;;
25982;SDS011;13773;48.868;10.730;2024-01-15T07:00:30;13.07;;;6.20;;
25982;SDS011;13773;48.868;10.730;2024-01-15T07:02:56;9.87;;;5.37;;
25982;SDS011;13773;48.868;10.730;2024-01-15T07:05:21;10.90;;;5.93;;
25982;SDS011;13773;48.868;10.730;2024-01-15T07:07:48;11.00;;;5.00;;
25982;SDS011;13773;48.868;10.730;2024-01-15T07:10:14;10.80;;;5.70;;
25982;SDS011;13773;48.868;10.730;2024-01-15T07:12:43;10.07;;;5.43;;
25982;SDS011;13773;48.868;10.730;2024-01-15T07:15:09;9.53;;;5.93;;
25982;SDS011;13773;48.868;10.730;2024-01-15T07:17:35;8.10;;;5.13;;
25982;SDS011;13773;48.868;10.730;2024-01-15T07:20:06;9.93;;;5.23;;
25982;SDS011;13773;48.868;10.730;2024-01-15T07:22:37;7.53;;;5.00;;
25982;SDS011;13773;48.868;10.730;2024-01-15T07:25:03;11.03;;;5.60;;
25982;SDS011;13773;48.868;10.730;2024-01-15T07:27:30;11.40;;;5.37;;
25982;SDS011;13773;48.868;10.730;2024-01-15T07:29:56;12.23;;;5.77;;
25982;SDS011;13773;48.868;10.730;2024-01-15T07:32:22;13.20;;;6.43;;
25982;SDS011;13773;48.868;10.730;2024-01-15T07:34:48;10.17;;;5.93;;
25982;SDS011;13773;48.868;10.730;2024-01-15T07:37:14;12.60;;;5.43;;
25982;SDS011;13773;48.868;10.730;2024-01-15T07:39:40;9.50;;;5.57;;
25982;SDS011;13773;48.868;10.730;2024-01-15T07:42:05;11.37;;;5.10;;
25982;SDS011;13773;48.868;10.730;2024-01-15T07:44:32;9.50;;;5.53;;
25982;SDS011;13773;48.868;10.730;2024-01-15T07:46:58;9.57;;;4.90;;
25982;SDS011;13773;48.868;10.730;2024-01-15T07:49:24;10.27;;;6.23;;
25982;SDS011;13773;48.868;10.730;2024-01-15T07:51:50;8.70;;;4.93;;
25982;SDS011;13773;48.868;10.730;2024-01-15T07:54:15;10.17;;;5.50;;
25982;SDS011;13773;48.868;10.730;2024-01-15T07:56:57;8.83;;;4.70;;
25982;SDS011;13773;48.868;10.730;2024-01-15T07:59:26;13.23;;;5.90;;
25982;SDS011;13773;48.868;10.730;2024-01-15T08:01:52;9.83;;;5.23;;
25982;SDS011;13773;48.868;10.730;2024-01-15T08:04:18;9.63;;;5.47;;
25982;SDS011;13773;48.868;10.730;2024-01-15T08:06:44;10.80;;;5.27;;
25982;SDS011;13773;48.868;10.730;2024-01-15T08:09:10;11.70;;;5.73;;
25982;SDS011;13773;48.868;10.730;2024-01-15T08:11:39;10.20;;;5.27;;
25982;SDS011;13773;48.868;10.730;2024-01-15T08:14:06;9.53;;;4.97;;
25982;SDS011;13773;48.868;10.730;2024-01-15T08:16:32;9.13;;;5.00;;
25982;SDS011;13773;48.868;10.730;2024-01-15T08:18:57;10.97;;;4.87;;
25982;SDS011;13773;48.868;10.730;2024-01-15T08:21:23;13.27;;;6.60;;
25982;SDS011;13773;48.868;10.730;2024-01-15T08:23:49;15.97;;;6.07;;
25982;SDS011;13773;48.868;10.730;2024-01-15T08:26:14;9.83;;;5.80;;
25982;SDS011;13773;48.868;10.730;2024-01-15T08:28:40;10.47;;;5.13;;
25982;SDS011;13773;48.868;10.730;2024-01-15T08:31:06;9.53;;;5.27;;
25982;SDS011;13773;48.868;10.730;2024-01-15T08:33:31;11.27;;;6.00;;
25982;SDS011;13773;48.868;10.730;2024-01-15T08:35:57;17.13;;;7.63;;
25982;SDS011;13773;48.868;10.730;2024-01-15T08:38:23;10.50;;;5.90;;
25982;SDS011;13773;48.868;10.730;2024-01-15T08:40:50;9.70;;;4.97;;
25982;SDS011;13773;48.868;10.730;2024-01-15T08:43:18;8.53;;;4.70;;
25982;SDS011;13773;48.868;10.730;2024-01-15T08:45:44;10.07;;;5.37;;
25982;SDS011;13773;48.868;10.730;2024-01-15T08:48:10;10.13;;;5.47;;
25982;SDS011;13773;48.868;10.730;2024-01-15T08:50:35;8.83;;;4.97;;
25982;SDS011;13773;48.868;10.730;2024-01-15T08:53:01;10.40;;;5.83;;
25982;SDS011;13773;48.868;10.730;2024-01-15T08:55:27;8.97;;;4.07;;
25982;SDS011;13773;48.868;10.730;2024-01-15T08:57:53;7.13;;;4.20;;
25982;SDS011;13773;48.868;10.730;2024-01-15T09:00:19;9.57;;;4.63;;
25982;SDS011;13773;48.868;10.730;2024-01-15T09:02:45;6.80;;;4.60;;
25982;SDS011;13773;48.868;10.730;2024-01-15T09:05:11;7.77;;;4.20;;
25982;SDS011;13773;48.868;10.730;2024-01-15T09:07:36;7.73;;;4.27;;
25982;SDS011;13773;48.868;10.730;2024-01-15T09:10:02;7.87;;;4.20;;
25982;SDS011;13773;48.868;10.730;2024-01-15T09:12:28;8.30;;;4.43;;
25982;SDS011;13773;48.868;10.730;2024-01-15T09:14:54;8.73;;;4.50;;
25982;SDS011;13773;48.868;10.730;2024-01-15T09:17:20;6.10;;;4.03;;
25982;SDS011;13773;48.868;10.730;2024-01-15T09:19:48;10.83;;;4.50;;
25982;SDS011;13773;48.868;10.730;2024-01-15T09:22:14;6.90;;;4.30;;
25982;SDS011;13773;48.868;10.730;2024-01-15T09:24:43;7.73;;;4.47;;
25982;SDS011;13773;48.868;10.730;2024-01-15T09:27:09;6.90;;;4.47;;
25982;SDS011;13773;48.868;10.730;2024-01-15T09:29:35;10.83;;;4.03;;
25982;SDS011;13773;48.868;10.730;2024-01-15T09:32:04;7.07;;;4.27;;
25982;SDS011;13773;48.868;10.730;2024-01-15T09:34:31;6.93;;;4.23;;
25982;SDS011;13773;48.868;10.730;2024-01-15T09:36:57;8.67;;;3.93;;
25982;SDS011;13773;48.868;10.730;2024-01-15T09:39:22;5.03;;;3.20;;
25982;SDS011;13773;48.868;10.730;2024-01-15T09:41:49;6.87;;;3.70;;
25982;SDS011;13773;48.868;10.730;2024-01-15T09:44:15;9.50;;;4.73;;
25982;SDS011;13773;48.868;10.730;2024-01-15T09:46:42;9.60;;;4.07;;
25982;SDS011;13773;48.868;10.730;2024-01-15T09:49:09;7.87;;;4.83;;
25982;SDS011;13773;48.868;10.730;2024-01-15T09:51:36;11.63;;;6.17;;
25982;SDS011;13773;48.868;10.730;2024-01-15T09:54:02;9.10;;;5.30;;
25982;SDS011;13773;48.868;10.730;2024-01-15T09:56:29;6.37;;;3.57;;
25982;SDS011;13773;48.868;10.730;2024-01-15T09:58:56;12.33;;;6.47;;
25982;SDS011;13773;48.868;10.730;2024-01-15T10:01:23;9.40;;;4.23;;
25982;SDS011;13773;48.868;10.730;2024-01-15T10:03:49;6.40;;;3.90;;
25982;SDS011;13773;48.868;10.730;2024-01-15T10:06:16;6.77;;;3.60;;
25982;SDS011;13773;48.868;10.730;2024-01-15T10:08:43;6.00;;;3.53;;
25982;SDS011;13773;48.868;10.730;2024-01-15T10:11:13;9.17;;;4.93;;
25982;SDS011;13773;48.868;10.730;2024-01-15T10:13:39;5.70;;;3.67;;
25982;SDS011;13773;48.868;10.730;2024-01-15T10:16:05;6.60;;;4.20;;
25982;SDS011;13773;48.868;10.730;2024-01-15T10:18:32;6.63;;;3.90;;
25982;SDS011;13773;48.868;10.730;2024-01-15T10:20:58;4.97;;;3.40;;
25982;SDS011;13773;48.868;10.730;2024-01-15T10:23:24;7.80;;;3.40;;
25982;SDS011;13773;48.868;10.730;2024-01-15T10:25:50;6.90;;;4.13;;
25982;SDS011;13773;48.868;10.730;2024-01-15T10:28:18;5.30;;;3.10;;
25982;SDS011;13773;48.868;10.730;2024-01-15T10:30:44;7.43;;;4.23;;
25982;SDS011;13773;48.868;10.730;2024-01-15T10:33:10;7.77;;;4.30;;
25982;SDS011;13773;48.868;10.730;2024-01-15T10:35:37;7.40;;;3.70;;
25982;SDS011;13773;48.868;10.730;2024-01-15T10:38:03;9.40;;;3.60;;
25982;SDS011;13773;48.868;10.730;2024-01-15T10:40:30;4.87;;;3.23;;
25982;SDS011;13773;48.868;10.730;2024-01-15T10:42:57;8.07;;;3.90;;
25982;SDS011;13773;48.868;10.730;2024-01-15T10:45:23;6.50;;;3.77;;
25982;SDS011;13773;48.868;10.730;2024-01-15T10:47:49;4.80;;;3.43;;
25982;SDS011;13773;48.868;10.730;2024-01-15T10:50:15;7.87;;;4.10;;
25982;SDS011;13773;48.868;10.730;2024-01-15T10:52:41;6.87;;;3.90;;
25982;SDS011;13773;48.868;10.730;2024-01-15T10:55:10;10.07;;;4.10;;
25982;SDS011;13773;48.868;10.730;2024-01-15T10:57:37;8.00;;;4.20;;
25982;SDS011;13773;48.868;10.730;2024-01-15T11:00:04;4.97;;;3.60;;
25982;SDS011;13773;48.868;10.730;2024-01-15T11:02:34;6.00;;;3.60;;
25982;SDS011;13773;48.868;10.730;2024-01-15T11:05:02;7.70;;;3.97;;
25982;SDS011;13773;48.868;10.730;2024-01-15T11:07:29;8.43;;;3.73;;
25982;SDS011;13773;48.868;10.730;2024-01-15T11:09:57;6.17;;;3.30;;
25982;SDS011;13773;48.868;10.730;2024-01-15T11:12:25;5.67;;;3.20;;
25982;SDS011;13773;48.868;10.730;2024-01-15T11:14:51;5.87;;;3.73;;
25982;SDS011;13773;48.868;10.730;2024-01-15T11:17:19;9.63;;;3.97;;
25982;SDS011;13773;48.868;10.730;2024-01-15T11:19:45;5.27;;;3.60;;
25982;SDS011;13773;48.868;10.730;2024-01-15T11:24:57;6.47;;;3.73;;
25982;SDS011;13773;48.868;10.730;2024-01-15T11:27:45;4.87;;;3.70;;
25982;SDS011;13773;48.868;10.730;2024-01-15T11:30:18;8.33;;;4.33;;
25982;SDS011;13773;48.868;10.730;2024-01-15T11:32:47;7.40;;;4.00;;
25982;SDS011;13773;48.868;10.730;2024-01-15T11:35:13;9.73;;;4.53;;
25982;SDS011;13773;48.868;10.730;2024-01-15T11:40:21;6.70;;;3.00;;
25982;SDS011;13773;48.868;10.730;2024-01-15T11:42:48;5.30;;;3.20;;
25982;SDS011;13773;48.868;10.730;2024-01-15T11:45:20;4.17;;;3.17;;
25982;SDS011;13773;48.868;10.730;2024-01-15T11:50:30;5.43;;;3.37;;
25982;SDS011;13773;48.868;10.730;2024-01-15T11:53:00;4.83;;;3.30;;
25982;SDS011;13773;48.868;10.730;2024-01-15T11:55:28;5.00;;;3.07;;
25982;SDS011;13773;48.868;10.730;2024-01-15T11:57:58;6.63;;;3.30;;
25982;SDS011;13773;48.868;10.730;2024-01-15T12:00:26;6.67;;;3.30;;
25982;SDS011;13773;48.868;10.730;2024-01-15T12:02:53;6.10;;;3.10;;
25982;SDS011;13773;48.868;10.730;2024-01-15T12:05:19;5.07;;;3.60;;
25982;SDS011;13773;48.868;10.730;2024-01-15T12:07:49;5.67;;;3.57;;
25982;SDS011;13773;48.868;10.730;2024-01-15T12:10:16;7.23;;;3.40;;
25982;SDS011;13773;48.868;10.730;2024-01-15T12:12:58;4.97;;;2.90;;
25982;SDS011;13773;48.868;10.730;2024-01-15T12:15:34;6.63;;;3.43;;
25982;SDS011;13773;48.868;10.730;2024-01-15T12:18:00;6.83;;;2.87;;
25982;SDS011;13773;48.868;10.730;2024-01-15T12:20:30;9.03;;;3.27;;
25982;SDS011;13773;48.868;10.730;2024-01-15T12:22:56;6.10;;;3.23;;
25982;SDS011;13773;48.868;10.730;2024-01-15T12:25:22;4.10;;;2.70;;
25982;SDS011;13773;48.868;10.730;2024-01-15T12:27:49;3.80;;;2.47;;
25982;SDS011;13773;48.868;10.730;2024-01-15T12:30:15;4.77;;;2.93;;
25982;SDS011;13773;48.868;10.730;2024-01-15T12:32:41;6.00;;;3.07;;
25982;SDS011;13773;48.868;10.730;2024-01-15T12:35:07;5.80;;;3.10;;
25982;SDS011;13773;48.868;10.730;2024-01-15T12:37:35;3.17;;;2.43;;
25982;SDS011;13773;48.868;10.730;2024-01-15T12:40:08;4.27;;;2.60;;
25982;SDS011;13773;48.868;10.730;2024-01-15T12:42:35;4.50;;;3.27;;
25982;SDS011;13773;48.868;10.730;2024-01-15T12:45:02;3.73;;;2.73;;
25982;SDS011;13773;48.868;10.730;2024-01-15T12:47:30;5.27;;;3.23;;
25982;SDS011;13773;48.868;10.730;2024-01-15T12:49:57;4.17;;;3.23;;
25982;SDS011;13773;48.868;10.730;2024-01-15T12:52:26;3.53;;;2.87;;
25982;SDS011;13773;48.868;10.730;2024-01-15T12:54:55;4.60;;;3.03;;
25982;SDS011;13773;48.868;10.730;2024-01-15T12:57:21;4.67;;;3.20;;
25982;SDS011;13773;48.868;10.730;2024-01-15T12:59:48;9.03;;;3.70;;
25982;SDS011;13773;48.868;10.730;2024-01-15T13:02:15;5.53;;;3.60;;
25982;SDS011;13773;48.868;10.730;2024-01-15T13:04:44;6.83;;;3.60;;
25982;SDS011;13773;48.868;10.730;2024-01-15T13:07:09;6.13;;;3.13;;
25982;SDS011;13773;48.868;10.730;2024-01-15T13:09:35;6.00;;;4.00;;
25982;SDS011;13773;48.868;10.730;2024-01-15T13:12:01;5.53;;;3.70;;
25982;SDS011;13773;48.868;10.730;2024-01-15T13:14:28;5.57;;;4.73;;
25982;SDS011;13773;48.868;10.730;2024-01-15T13:16:54;8.07;;;4.33;;
25982;SDS011;13773;48.868;10.730;2024-01-15T13:19:20;8.00;;;5.50;;
25982;SDS011;13773;48.868;10.730;2024-01-15T13:21:47;7.80;;;4.83;;
25982;SDS011;13773;48.868;10.730;2024-01-15T13:24:12;6.40;;;4.27;;
25982;SDS011;13773;48.868;10.730;2024-01-15T13:26:39;9.63;;;5.20;;
25982;SDS011;13773;48.868;10.730;2024-01-15T13:29:05;6.23;;;5.00;;
25982;SDS011;13773;48.868;10.730;2024-01-15T13:31:34;4.80;;;4.20;;
25982;SDS011;13773;48.868;10.730;2024-01-15T13:34:00;8.37;;;4.80;;
25982;SDS011;13773;48.868;10.730;2024-01-15T13:36:26;7.27;;;4.47;;
25982;SDS011;13773;48.868;10.730;2024-01-15T13:38:53;6.10;;;4.30;;
25982;SDS011;13773;48.868;10.730;2024-01-15T13:41:19;6.83;;;3.67;;
25982;SDS011;13773;48.868;10.730;2024-01-15T13:43:50;5.67;;;3.97;;
25982;SDS011;13773;48.868;10.730;2024-01-15T13:46:18;9.30;;;4.70;;
25982;SDS011;13773;48.868;10.730;2024-01-15T13:48:45;8.87;;;4.10;;
25982;SDS011;13773;48.868;10.730;2024-01-15T13:51:10;6.13;;;4.23;;
25982;SDS011;13773;48.868;10.730;2024-01-15T13:53:37;7.10;;;4.77;;
25982;SDS011;13773;48.868;10.730;2024-01-15T13:56:03;6.00;;;4.40;;
25982;SDS011;13773;48.868;10.730;2024-01-15T13:58:30;6.53;;;4.67;;
25982;SDS011;13773;48.868;10.730;2024-01-15T14:00:56;6.03;;;4.10;;
25982;SDS011;13773;48.868;10.730;2024-01-15T14:03:22;11.47;;;5.07;;
25982;SDS011;13773;48.868;10.730;2024-01-15T14:05:47;8.47;;;5.50;;
25982;SDS011;13773;48.868;10.730;2024-01-15T14:08:14;7.20;;;5.23;;
25982;SDS011;13773;48.868;10.730;2024-01-15T14:10:40;8.20;;;5.43;;
25982;SDS011;13773;48.868;10.730;2024-01-15T14:13:05;9.40;;;5.77;;
25982;SDS011;13773;48.868;10.730;2024-01-15T14:15:31;7.43;;;4.80;;
25982;SDS011;13773;48.868;10.730;2024-01-15T14:17:56;6.20;;;4.97;;
25982;SDS011;13773;48.868;10.730;2024-01-15T14:20:23;6.47;;;4.23;;
25982;SDS011;13773;48.868;10.730;2024-01-15T14:22:52;5.93;;;4.10;;
25982;SDS011;13773;48.868;10.730;2024-01-15T14:25:19;4.93;;;3.43;;
25982;SDS011;13773;48.868;10.730;2024-01-15T14:27:47;6.77;;;4.40;;
25982;SDS011;13773;48.868;10.730;2024-01-15T14:30:13;5.50;;;3.87;;